Time;durP1;ratioP1;P1;durP2;ratioP2;P2;SDS_P1;SDS_P2;PMS_P1;PMS_P2;Temp;Humidity;BMP_temperature;BMP_pressure;BME280_temperature;BME280_humidity;BME280_pressure;Samples;Min_cycle;Max_cycle;Signal;HPM_P1;HPM_P2
2023/03/02 00:00:41;;;;;;;9.43;5.45;;;-0.10;99.90;;;;;;5037907;28;20025;-55
2023/03/02 00:03:07;;;;;;;14.52;6.53;;;-0.10;99.90;;;;;;5038104;28;20171;-57
2023/03/02 00:05:34;;;;;;;11.60;5.68;;;0.00;99.90;;;;;;5054709;28;20116;-55
2023/03/02 00:08:02;;;;;;;13.40;6.35;;;-0.10;99.90;;;;;;5039481;28;20114;-57
2023/03/02 00:10:27;;;;;;;9.68;6.18;;;0.00;99.90;;;;;;5036390;28;20033;-55
2023/03/02 00:12:53;;;;;;;16.17;7.30;;;-0.10;99.90;;;;;;5038745;28;20029;-54
2023/03/02 00:15:19;;;;;;;9.68;6.28;;;-0.10;99.90;;;;;;5039301;28;20040;-57
2023/03/02 00:17:44;;;;;;;17.33;7.63;;;-0.10;99.90;;;;;;5039100;28;20041;-55
2023/03/02 00:20:10;;;;;;;8.90;6.63;;;-0.10;99.90;;;;;;5037197;28;20052;-57
2023/03/02 00:22:42;;;;;;;8.70;6.07;;;-0.20;99.90;;;;;;5038952;28;20025;-55
2023/03/02 00:25:09;;;;;;;28.75;7.35;;;-0.10;99.90;;;;;;5037265;28;20025;-57
2023/03/02 00:27:35;;;;;;;15.50;6.70;;;-0.10;99.90;;;;;;5038897;28;20392;-57
2023/03/02 00:30:00;;;;;;;28.90;7.38;;;-0.10;99.90;;;;;;5037911;28;20028;-55
2023/03/02 00:32:26;;;;;;;12.70;7.13;;;0.00;99.90;;;;;;5039204;28;20033;-58
2023/03/02 00:34:52;;;;;;;16.27;7.15;;;-0.10;99.90;;;;;;5037515;28;20031;-56
2023/03/02 00:37:18;;;;;;;11.60;7.70;;;-0.10;99.90;;;;;;5037844;28;20044;-57
2023/03/02 00:39:43;;;;;;;10.30;7.30;;;-0.10;99.90;;;;;;5037014;28;20394;-56
2023/03/02 00:42:09;;;;;;;9.05;6.57;;;-0.10;99.90;;;;;;5036871;28;20030;-56
2023/03/02 00:44:34;;;;;;;11.35;7.82;;;-0.10;99.90;;;;;;5037228;28;20399;-54
2023/03/02 00:47:00;;;;;;;15.00;8.52;;;0.00;99.90;;;;;;5038709;28;20083;-56
2023/03/02 00:49:26;;;;;;;11.27;6.88;;;-0.10;99.90;;;;;;5035533;28;20037;-56
2023/03/02 00:51:51;;;;;;;23.27;7.90;;;-0.10;99.90;;;;;;5037464;28;20017;-54
2023/03/02 00:54:17;;;;;;;21.20;8.50;;;-0.10;99.90;;;;;;5036945;28;20018;-54
2023/03/02 00:56:43;;;;;;;11.18;7.93;;;-0.20;99.90;;;;;;5039004;28;20387;-54
2023/03/02 00:59:29;;;;;;;24.20;8.07;;;-0.10;99.90;;;;;;5036967;28;20031;-57
2023/03/02 01:01:57;;;;;;;21.20;7.97;;;-0.20;99.90;;;;;;5038298;28;20026;-54
2023/03/02 01:04:28;;;;;;;10.52;6.97;;;-0.20;99.90;;;;;;5037100;28;20568;-56
2023/03/02 01:06:54;;;;;;;20.48;7.72;;;-0.20;99.90;;;;;;5038478;28;20021;-55
2023/03/02 01:09:20;;;;;;;15.05;7.38;;;-0.10;99.90;;;;;;5036099;28;20518;-57
2023/03/02 01:11:46;;;;;;;10.85;8.13;;;-0.10;99.90;;;;;;5037276;28;20029;-55
2023/03/02 01:14:11;;;;;;;12.30;8.02;;;-0.20;99.90;;;;;;5037458;28;20033;-57
2023/03/02 01:16:37;;;;;;;20.52;8.05;;;-0.10;99.90;;;;;;5036625;28;20057;-57
2023/03/02 01:19:02;;;;;;;48.88;9.80;;;-0.10;99.90;;;;;;5037021;28;20033;-54
2023/03/02 01:21:28;;;;;;;28.33;8.35;;;-0.10;99.90;;;;;;5036814;28;20024;-55
2023/03/02 01:23:54;;;;;;;33.42;8.18;;;-0.20;99.90;;;;;;5037677;28;20075;-53
2023/03/02 01:26:19;;;;;;;30.65;8.18;;;-0.20;99.90;;;;;;5037789;28;20017;-56
2023/03/02 01:28:45;;;;;;;33.75;8.25;;;-0.30;99.90;;;;;;5037789;28;20021;-55
2023/03/02 01:31:10;;;;;;;40.35;9.00;;;-0.30;99.90;;;;;;5037476;28;20517;-53
2023/03/02 01:33:36;;;;;;;31.67;9.00;;;-0.30;99.90;;;;;;5037804;28;20107;-56
2023/03/02 01:36:02;;;;;;;15.15;8.40;;;-0.30;99.90;;;;;;5041803;28;20026;-53
2023/03/02 01:38:27;;;;;;;30.52;9.32;;;-0.30;99.90;;;;;;5042466;28;20033;-56
2023/03/02 01:40:53;;;;;;;12.05;8.30;;;-0.30;99.90;;;;;;5041231;28;20458;-55
2023/03/02 01:43:18;;;;;;;17.98;8.88;;;-0.30;99.90;;;;;;5041964;28;20020;-53
2023/03/02 01:45:50;;;;;;;27.42;8.68;;;-0.30;99.90;;;;;;5037685;28;20147;-56
2023/03/02 01:48:19;;;;;;;14.25;8.15;;;-0.20;99.90;;;;;;5040310;28;20029;-57
2023/03/02 01:50:44;;;;;;;21.77;7.65;;;-0.30;99.90;;;;;;5039573;28;20514;-54
2023/03/02 01:53:12;;;;;;;21.75;8.55;;;-0.30;99.90;;;;;;5040977;28;20025;-57
2023/03/02 01:55:39;;;;;;;21.58;8.40;;;-0.30;99.90;;;;;;5041017;28;20052;-58
2023/03/02 01:58:05;;;;;;;21.95;8.10;;;-0.30;99.90;;;;;;5039941;28;20029;-56
2023/03/02 02:00:36;;;;;;;24.38;8.38;;;-0.30;99.90;;;;;;5038394;28;20067;-56
2023/03/02 02:03:09;;;;;;;27.27;8.13;;;-0.40;99.90;;;;;;5038911;28;20395;-57
2023/03/02 02:05:37;;;;;;;26.85;8.55;;;-0.40;99.90;;;;;;5038340;28;20488;-55
2023/03/02 02:08:03;;;;;;;13.45;7.70;;;-0.40;99.90;;;;;;5040750;28;20507;-54
2023/03/02 02:10:30;;;;;;;18.92;9.05;;;-0.40;99.90;;;;;;5039342;28;20687;-52
2023/03/02 02:12:56;;;;;;;26.65;10.00;;;-0.40;99.90;;;;;;5040038;28;20033;-57
2023/03/02 02:15:21;;;;;;;13.45;7.90;;;-0.40;99.90;;;;;;5041930;28;20021;-55
2023/03/02 02:17:47;;;;;;;14.35;8.55;;;-0.40;99.90;;;;;;5039412;28;20025;-55
2023/03/02 02:20:32;;;;;;;16.40;8.98;;;-0.40;99.90;;;;;;5038762;28;20438;-57
2023/03/02 02:23:29;;;;;;;24.30;8.57;;;-0.30;99.90;;;;;;5041042;28;20027;-56
2023/03/02 02:25:55;;;;;;;58.17;8.00;;;-0.30;99.90;;;;;;5039858;28;20045;-56
2023/03/02 02:28:28;;;;;;;11.15;7.03;;;-0.40;99.90;;;;;;5041763;28;20106;-58
2023/03/02 02:31:25;;;;;;;34.05;8.25;;;-0.50;99.90;;;;;;5041717;28;20105;-56
2023/03/02 02:33:58;;;;;;;;;;;-0.50;99.90;;;;;;5027720;28;20036;-57
2023/03/02 02:36:31;;;;;;;24.02;7.57;;;-0.60;99.90;;;;;;5039803;28;19909;-56
2023/03/02 02:39:01;;;;;;;41.40;8.35;;;-0.60;99.90;;;;;;5040201;28;20025;-57
2023/03/02 02:41:31;;;;;;;24.17;7.13;;;-0.60;99.90;;;;;;5040898;28;20040;-55
2023/03/02 02:43:57;;;;;;;44.30;8.48;;;-0.70;99.90;;;;;;5041121;28;20071;-51
2023/03/02 02:46:24;;;;;;;24.45;7.63;;;-0.70;99.90;;;;;;5038328;28;20020;-52
2023/03/02 02:48:49;;;;;;;51.75;10.00;;;-0.70;99.90;;;;;;5038997;28;20098;-57
2023/03/02 02:51:22;;;;;;;61.55;9.00;;;-0.70;99.90;;;;;;5040002;28;20116;-57
2023/03/02 02:54:01;;;;;;;40.90;8.10;;;-0.70;99.90;;;;;;5040400;28;20352;-57
2023/03/02 02:56:33;;;;;;;10.02;6.82;;;-0.80;99.90;;;;;;5037546;28;20086;-56
2023/03/02 02:59:10;;;;;;;33.75;7.35;;;-0.80;99.90;;;;;;5037885;28;20029;-56
2023/03/02 03:01:36;;;;;;;16.77;6.72;;;-0.80;99.90;;;;;;5039597;28;20061;-56
2023/03/02 03:04:04;;;;;;;18.83;7.45;;;-0.90;99.90;;;;;;5038637;28;20172;-57
2023/03/02 03:06:41;;;;;;;15.93;7.55;;;-0.80;99.90;;;;;;5040694;28;20039;-56
2023/03/02 03:09:07;;;;;;;;;;;-0.80;99.90;;;;;;5040077;28;20449;-57
2023/03/02 03:11:39;;;;;;;26.65;7.53;;;-0.80;99.90;;;;;;5039982;28;19909;-56
2023/03/02 03:14:12;;;;;;;30.05;7.07;;;-0.80;99.90;;;;;;5040234;28;20029;-57
2023/03/02 03:16:40;;;;;;;12.02;7.22;;;-0.80;99.90;;;;;;5039627;28;20033;-55
2023/03/02 03:19:17;;;;;;;19.63;8.35;;;-0.80;99.90;;;;;;5038733;28;20030;-55
2023/03/02 03:21:43;;;;;;;31.25;9.20;;;-0.70;99.90;;;;;;5039454;28;20491;-54
2023/03/02 03:24:09;;;;;;;13.45;8.65;;;-0.80;99.90;;;;;;5039263;28;20080;-56
2023/03/02 03:26:35;;;;;;;40.38;8.70;;;-0.70;99.90;;;;;;5039117;28;20025;-55
2023/03/02 03:29:01;;;;;;;33.28;9.65;;;-0.70;99.90;;;;;;5039658;28;20105;-55
2023/03/02 03:31:27;;;;;;;19.08;8.77;;;-0.70;99.90;;;;;;5038283;28;20033;-53
2023/03/02 03:33:54;;;;;;;12.38;8.27;;;-0.70;99.90;;;;;;5040801;28;20029;-57
2023/03/02 03:36:21;;;;;;;27.38;8.82;;;-0.70;99.90;;;;;;5039797;28;20021;-53
2023/03/02 03:38:47;;;;;;;12.10;7.95;;;-0.70;99.90;;;;;;5039112;28;20109;-55
2023/03/02 03:41:14;;;;;;;40.20;10.73;;;-0.70;99.90;;;;;;5039215;28;20567;-57
2023/03/02 03:43:39;;;;;;;35.13;8.90;;;-0.70;99.90;;;;;;5039006;28;20029;-57
2023/03/02 03:46:05;;;;;;;24.48;9.07;;;-0.70;99.90;;;;;;5039973;28;20491;-52
2023/03/02 03:48:30;;;;;;;21.00;8.80;;;-0.70;99.90;;;;;;5039684;28;20022;-55
2023/03/02 03:50:59;;;;;;;12.48;8.00;;;-0.70;99.90;;;;;;5039383;28;20558;-54
2023/03/02 03:53:24;;;;;;;42.80;10.30;;;-0.70;99.90;;;;;;5039990;28;20025;-52
2023/03/02 03:55:50;;;;;;;25.13;9.15;;;-0.70;99.90;;;;;;5039772;28;20024;-54
2023/03/02 03:58:15;;;;;;;42.25;10.48;;;-0.80;99.90;;;;;;5039667;28;20048;-56
2023/03/02 04:00:41;;;;;;;34.78;10.25;;;-0.80;99.90;;;;;;5038489;28;20095;-56
2023/03/02 04:03:07;;;;;;;12.93;8.73;;;-0.80;99.90;;;;;;5036914;28;20033;-55
2023/03/02 04:05:33;;;;;;;24.60;8.90;;;-0.90;99.90;;;;;;5038315;28;20040;-56
2023/03/02 04:08:00;;;;;;;12.88;8.77;;;-0.80;99.90;;;;;;5038190;28;20029;-55
2023/03/02 04:10:27;;;;;;;21.67;8.43;;;-0.80;99.90;;;;;;5039091;28;20048;-53
2023/03/02 04:12:53;;;;;;;13.75;7.97;;;-0.70;99.90;;;;;;5036494;28;20113;-56
2023/03/02 04:15:18;;;;;;;20.65;9.60;;;-0.70;99.90;;;;;;5038296;28;20120;-54
2023/03/02 04:17:44;;;;;;;19.48;8.77;;;-0.70;99.90;;;;;;5037997;28;20814;-54
2023/03/02 04:20:15;;;;;;;16.35;8.25;;;-0.70;99.90;;;;;;5037287;28;20346;-54
2023/03/02 04:22:44;;;;;;;14.68;8.10;;;-0.80;99.90;;;;;;5037867;28;20091;-56
2023/03/02 04:25:11;;;;;;;32.03;9.55;;;-0.80;99.90;;;;;;5037643;28;20033;-55
2023/03/02 04:27:38;;;;;;;15.23;8.35;;;-0.90;99.90;;;;;;5037285;28;20112;-56
2023/03/02 04:30:05;;;;;;;21.40;9.60;;;-0.90;99.90;;;;;;5038877;28;20022;-54
2023/03/02 04:32:31;;;;;;;13.48;8.80;;;-1.00;99.90;;;;;;5039168;28;20091;-57
2023/03/02 04:34:56;;;;;;;25.92;9.82;;;-1.00;99.90;;;;;;5035859;28;20500;-55
2023/03/02 04:37:22;;;;;;;11.75;8.77;;;-1.00;99.90;;;;;;5038573;28;20059;-55
2023/03/02 04:39:50;;;;;;;13.10;9.00;;;-0.90;99.90;;;;;;5038947;28;20029;-56
2023/03/02 04:42:17;;;;;;;15.60;9.27;;;-0.90;99.90;;;;;;5038073;28;20439;-53
2023/03/02 04:44:42;;;;;;;12.30;9.00;;;-0.90;99.90;;;;;;5037786;28;20432;-57
2023/03/02 04:47:09;;;;;;;25.63;9.93;;;-0.80;99.90;;;;;;5038337;28;20033;-55
2023/03/02 04:49:35;;;;;;;13.38;8.48;;;-0.80;99.90;;;;;;5037013;28;20037;-53
2023/03/02 04:52:00;;;;;;;41.28;9.38;;;-0.90;99.90;;;;;;5037902;28;20052;-56
2023/03/02 04:54:26;;;;;;;14.70;9.50;;;-0.80;99.90;;;;;;5035328;28;20752;-55
2023/03/02 04:56:52;;;;;;;22.77;10.57;;;-0.80;99.90;;;;;;5039062;28;20159;-57
2023/03/02 04:59:21;;;;;;;17.15;9.88;;;-0.80;99.90;;;;;;5037536;28;20020;-54
2023/03/02 05:01:47;;;;;;;20.48;9.70;;;-0.70;99.90;;;;;;5037114;28;20086;-56
2023/03/02 05:04:13;;;;;;;32.10;10.00;;;-0.70;99.90;;;;;;5038175;28;20032;-53
2023/03/02 05:06:39;;;;;;;13.10;9.20;;;-0.70;99.90;;;;;;5036376;28;20040;-58
2023/03/02 05:09:05;;;;;;;35.08;11.60;;;-0.70;99.90;;;;;;5034832;28;20471;-56
2023/03/02 05:11:31;;;;;;;14.77;8.98;;;-0.70;99.90;;;;;;5036428;28;20357;-54
2023/03/02 05:14:00;;;;;;;15.63;9.48;;;-0.70;99.90;;;;;;5035519;28;20103;-56
2023/03/02 05:16:28;;;;;;;15.40;9.70;;;-0.70;99.90;;;;;;5037146;28;20079;-55
2023/03/02 05:18:54;;;;;;;20.67;9.45;;;-0.70;99.90;;;;;;5036251;28;20396;-55
2023/03/02 05:21:20;;;;;;;19.65;9.32;;;-0.70;99.90;;;;;;5037261;28;20056;-57
2023/03/02 05:23:46;;;;;;;19.50;10.05;;;-0.70;99.90;;;;;;5038702;28;20391;-55
2023/03/02 05:26:13;;;;;;;20.70;9.93;;;-0.70;99.90;;;;;;5038407;28;20061;-55
2023/03/02 05:28:39;;;;;;;17.38;10.07;;;-0.70;99.90;;;;;;5038011;28;20406;-56
2023/03/02 05:31:05;;;;;;;16.25;9.25;;;-0.60;99.90;;;;;;5037863;28;20029;-57
2023/03/02 05:33:31;;;;;;;13.07;9.40;;;-0.60;99.90;;;;;;5037697;28;20033;-56
2023/03/02 05:35:58;;;;;;;15.40;9.18;;;-0.60;99.90;;;;;;5037339;28;20051;-57
2023/03/02 05:38:23;;;;;;;13.77;9.60;;;-0.60;99.90;;;;;;5038483;28;20037;-54
2023/03/02 05:40:49;;;;;;;25.60;10.57;;;-0.60;99.90;;;;;;5037041;28;20108;-53
2023/03/02 05:43:18;;;;;;;15.30;10.20;;;-0.50;99.90;;;;;;5038259;28;20102;-54
2023/03/02 05:45:44;;;;;;;37.80;11.23;;;-0.50;99.90;;;;;;5037425;28;20475;-56
2023/03/02 05:48:11;;;;;;;76.32;10.80;;;-0.60;99.90;;;;;;5037643;28;20032;-52
2023/03/02 05:50:37;;;;;;;37.88;10.55;;;-0.70;99.90;;;;;;5036471;28;20037;-56
2023/03/02 05:53:03;;;;;;;12.63;8.25;;;-0.80;99.90;;;;;;5037505;28;20521;-53
2023/03/02 05:55:29;;;;;;;14.85;9.45;;;-0.80;99.90;;;;;;5037437;28;20045;-53
2023/03/02 05:57:54;;;;;;;32.65;10.63;;;-0.80;99.90;;;;;;5037153;28;20442;-52
2023/03/02 06:00:20;;;;;;;16.40;8.77;;;-0.80;99.90;;;;;;5037403;28;20094;-53
2023/03/02 06:02:46;;;;;;;13.82;9.02;;;-0.80;99.90;;;;;;5037853;28;20072;-51
2023/03/02 06:05:15;;;;;;;14.48;8.43;;;-0.70;99.90;;;;;;5037070;28;20053;-52
2023/03/02 06:07:41;;;;;;;14.95;9.43;;;-0.70;99.90;;;;;;5037147;28;20033;-56
2023/03/02 06:10:09;;;;;;;18.63;10.70;;;-0.70;99.90;;;;;;5034948;28;20034;-52
2023/03/02 06:12:34;;;;;;;14.73;9.50;;;-0.70;99.90;;;;;;5037365;28;20376;-55
2023/03/02 06:15:00;;;;;;;17.25;10.05;;;-0.60;99.90;;;;;;5036425;28;20037;-56
2023/03/02 06:17:26;;;;;;;15.15;9.73;;;-0.70;99.90;;;;;;5037089;28;20083;-53
2023/03/02 06:19:52;;;;;;;15.60;9.75;;;-0.70;99.90;;;;;;5037309;28;20021;-51
2023/03/02 06:22:17;;;;;;;15.65;9.20;;;-0.70;99.90;;;;;;5041815;28;20036;-57
2023/03/02 06:24:43;;;;;;;14.57;9.27;;;-0.70;99.90;;;;;;5041182;28;20017;-55
2023/03/02 06:27:09;;;;;;;15.93;10.82;;;-0.60;99.90;;;;;;5038873;28;20078;-56
2023/03/02 06:29:34;;;;;;;18.52;10.02;;;-0.60;99.90;;;;;;5039716;28;20036;-53
2023/03/02 06:32:00;;;;;;;15.80;10.45;;;-0.60;99.90;;;;;;5039863;28;20025;-53
2023/03/02 06:34:25;;;;;;;17.58;10.98;;;-0.60;99.90;;;;;;5039724;28;20064;-53
2023/03/02 06:36:51;;;;;;;18.08;11.05;;;-0.50;99.90;;;;;;5039152;28;20025;-53
2023/03/02 06:39:17;;;;;;;23.40;11.15;;;-0.50;99.90;;;;;;5038904;28;20037;-55
2023/03/02 06:41:43;;;;;;;17.98;11.07;;;-0.50;99.90;;;;;;5039316;28;20402;-54
2023/03/02 06:44:09;;;;;;;16.73;11.25;;;-0.40;99.90;;;;;;5037448;28;20128;-55
2023/03/02 06:46:35;;;;;;;14.73;9.13;;;-0.40;99.90;;;;;;5040660;28;20140;-56
2023/03/02 06:49:01;;;;;;;15.82;10.23;;;-0.40;99.90;;;;;;5039438;28;20595;-56
2023/03/02 06:51:26;;;;;;;13.13;9.13;;;-0.40;99.90;;;;;;5040018;28;20112;-57
2023/03/02 06:53:52;;;;;;;15.35;9.70;;;-0.40;99.90;;;;;;5040289;28;20107;-55
2023/03/02 06:56:18;;;;;;;15.25;9.90;;;-0.40;99.90;;;;;;5038792;28;20126;-56
2023/03/02 06:58:43;;;;;;;16.02;9.63;;;-0.40;99.90;;;;;;5039903;28;20092;-54
2023/03/02 07:01:09;;;;;;;16.50;9.88;;;-0.40;99.90;;;;;;5038670;28;20039;-56
2023/03/02 07:03:35;;;;;;;22.15;9.63;;;-0.30;99.90;;;;;;5039489;28;20041;-54
2023/03/02 07:06:01;;;;;;;13.55;9.10;;;-0.30;99.90;;;;;;5040663;28;20017;-54
2023/03/02 07:08:26;;;;;;;15.13;8.88;;;-0.30;99.90;;;;;;5040176;28;20047;-57
2023/03/02 07:10:52;;;;;;;18.77;9.80;;;-0.40;99.90;;;;;;5038610;28;20041;-56
2023/03/02 07:13:17;;;;;;;16.50;9.52;;;-0.30;99.90;;;;;;5041216;28;20120;-58
2023/03/02 07:15:43;;;;;;;13.93;8.98;;;-0.30;99.90;;;;;;5040243;28;20037;-56
2023/03/02 07:18:09;;;;;;;18.75;9.40;;;-0.30;99.90;;;;;;5040431;28;20435;-55
2023/03/02 07:20:34;;;;;;;15.10;8.35;;;-0.30;99.90;;;;;;5039531;28;20376;-54
2023/03/02 07:23:00;;;;;;;13.48;8.70;;;-0.30;99.90;;;;;;5040838;28;20032;-57
2023/03/02 07:25:26;;;;;;;14.05;8.45;;;-0.30;99.90;;;;;;5040209;28;20045;-57
2023/03/02 07:27:51;;;;;;;14.30;8.20;;;-0.30;99.90;;;;;;5039258;28;20055;-56
2023/03/02 07:30:20;;;;;;;21.30;8.02;;;-0.20;99.90;;;;;;5039644;28;20041;-57
2023/03/02 07:32:47;;;;;;;15.50;9.32;;;-0.30;99.90;;;;;;5039243;28;20029;-57
2023/03/02 07:35:13;;;;;;;12.10;8.23;;;-0.30;99.90;;;;;;5039242;28;20155;-58
2023/03/02 07:37:38;;;;;;;12.57;8.43;;;-0.30;99.90;;;;;;5038647;28;20112;-58
2023/03/02 07:40:05;;;;;;;12.77;8.77;;;-0.20;99.90;;;;;;5039512;28;20069;-56
2023/03/02 07:42:31;;;;;;;13.25;8.23;;;-0.20;99.90;;;;;;5039616;28;20033;-55
2023/03/02 07:44:57;;;;;;;19.88;8.48;;;-0.10;99.90;;;;;;5038945;28;20060;-55
2023/03/02 07:47:23;;;;;;;29.77;9.18;;;-0.20;99.90;;;;;;5039597;28;20034;-55
2023/03/02 07:49:49;;;;;;;11.52;7.68;;;-0.20;99.90;;;;;;5038913;28;20120;-57
2023/03/02 07:52:14;;;;;;;13.73;8.32;;;-0.20;99.90;;;;;;5039063;28;20029;-57
2023/03/02 07:54:40;;;;;;;11.73;7.95;;;-0.20;99.90;;;;;;5039324;28;20028;-56
2023/03/02 07:57:05;;;;;;;13.40;7.93;;;-0.10;99.90;;;;;;5040526;28;20029;-56
2023/03/02 07:59:31;;;;;;;12.55;8.10;;;-0.10;99.90;;;;;;5054794;28;20072;-56
2023/03/02 08:01:57;;;;;;;12.98;8.05;;;-0.10;99.90;;;;;;5039799;28;20025;-56
2023/03/02 08:04:24;;;;;;;28.17;9.32;;;0.00;99.90;;;;;;5037759;28;20037;-56
2023/03/02 08:06:49;;;;;;;17.63;10.25;;;0.00;99.90;;;;;;5036192;28;20443;-57
2023/03/02 08:09:15;;;;;;;15.45;9.07;;;-0.10;99.90;;;;;;5036223;28;20068;-56
2023/03/02 08:11:41;;;;;;;18.10;9.38;;;-0.10;99.90;;;;;;5037015;28;20026;-57
2023/03/02 08:14:07;;;;;;;25.80;9.93;;;-0.10;99.90;;;;;;5038055;28;20144;-58
2023/03/02 08:16:32;;;;;;;30.83;9.45;;;-0.20;99.90;;;;;;5039027;28;20049;-56
2023/03/02 08:18:58;;;;;;;14.48;8.50;;;-0.30;99.90;;;;;;5038671;28;20086;-57
2023/03/02 08:21:24;;;;;;;13.85;8.30;;;-0.30;99.90;;;;;;5038545;28;20061;-57
2023/03/02 08:23:50;;;;;;;12.10;7.93;;;-0.20;99.90;;;;;;5038576;28;20112;-56
2023/03/02 08:26:18;;;;;;;12.75;8.65;;;-0.10;99.90;;;;;;5038423;28;20025;-56
2023/03/02 08:28:43;;;;;;;13.50;7.95;;;0.00;99.90;;;;;;5038178;28;20021;-57
2023/03/02 08:31:09;;;;;;;12.68;8.25;;;0.10;99.90;;;;;;5038568;28;20021;-56
2023/03/02 08:33:35;;;;;;;24.60;9.38;;;0.10;99.90;;;;;;5037650;28;20114;-59
2023/03/02 08:36:07;;;;;;;13.90;8.05;;;0.10;99.90;;;;;;5038896;28;20065;-58
2023/03/02 08:38:33;;;;;;;11.57;6.78;;;0.00;99.90;;;;;;5037057;28;20459;-58
2023/03/02 08:41:03;;;;;;;10.07;7.07;;;0.00;99.90;;;;;;5037804;28;20041;-58
2023/03/02 08:43:29;;;;;;;15.38;8.40;;;0.00;99.90;;;;;;5037780;28;20036;-57
2023/03/02 08:45:56;;;;;;;20.45;8.10;;;0.10;99.90;;;;;;5037739;28;20696;-58
2023/03/02 08:48:23;;;;;;;17.40;7.63;;;-0.10;99.90;;;;;;5039172;28;20106;-57
2023/03/02 08:51:07;;;;;;;9.52;6.90;;;0.00;99.90;;;;;;5036460;28;20498;-58
2023/03/02 08:53:35;;;;;;;23.83;8.75;;;0.00;99.90;;;;;;5038067;28;20743;-56
2023/03/02 08:56:01;;;;;;;13.82;7.72;;;-0.10;99.90;;;;;;5038067;28;20049;-57
2023/03/02 08:58:27;;;;;;;11.68;7.25;;;0.00;99.90;;;;;;5038786;28;20515;-58
2023/03/02 09:00:53;;;;;;;12.45;7.43;;;0.10;99.90;;;;;;5035475;28;20495;-55
2023/03/02 09:03:19;;;;;;;13.60;8.35;;;0.20;99.90;;;;;;5037497;28;20022;-57
2023/03/02 09:05:44;;;;;;;10.82;7.20;;;0.20;99.90;;;;;;5039003;28;20622;-56
2023/03/02 09:08:10;;;;;;;11.73;7.47;;;0.20;99.90;;;;;;5038157;28;20029;-58
2023/03/02 09:10:36;;;;;;;16.40;9.13;;;0.30;99.90;;;;;;5038127;28;20028;-57
2023/03/02 09:13:03;;;;;;;14.43;8.13;;;0.30;99.90;;;;;;5037218;28;20021;-57
2023/03/02 09:15:28;;;;;;;11.70;7.78;;;0.30;99.90;;;;;;5037604;28;20022;-58
2023/03/02 09:17:54;;;;;;;21.75;9.30;;;0.40;99.90;;;;;;5038163;28;20030;-56
2023/03/02 09:20:20;;;;;;;17.27;8.60;;;0.30;99.90;;;;;;5036017;28;20051;-58
2023/03/02 09:22:49;;;;;;;15.85;8.77;;;0.30;99.90;;;;;;5036253;28;20032;-58
2023/03/02 09:25:17;;;;;;;15.30;8.20;;;0.20;99.90;;;;;;5037586;28;20013;-53
2023/03/02 09:27:43;;;;;;;13.65;7.35;;;0.30;99.90;;;;;;5037447;28;20091;-57
2023/03/02 09:30:09;;;;;;;16.38;7.82;;;0.20;99.90;;;;;;5037238;28;20030;-58
2023/03/02 09:32:35;;;;;;;12.98;8.10;;;0.20;99.90;;;;;;5036369;28;20028;-56
2023/03/02 09:35:00;;;;;;;13.02;7.50;;;0.20;99.90;;;;;;5037430;28;20040;-58
2023/03/02 09:37:29;;;;;;;11.52;7.53;;;0.10;99.90;;;;;;5037400;28;20033;-57
2023/03/02 09:39:55;;;;;;;10.73;7.35;;;0.10;99.90;;;;;;5038202;28;20018;-57
2023/03/02 09:42:57;;;;;;;16.98;8.02;;;0.10;99.90;;;;;;5036414;28;20040;-58
2023/03/02 09:46:02;;;;;;;16.50;7.63;;;0.20;99.90;;;;;;5037102;28;20022;-57
2023/03/02 09:48:50;;;;;;;14.23;8.45;;;0.20;99.90;;;;;;5037944;28;20113;-57
2023/03/02 09:51:22;;;;;;;12.30;6.97;;;0.30;99.90;;;;;;5037322;28;20037;-58
2023/03/02 09:54:06;;;;;;;17.73;7.63;;;0.40;99.90;;;;;;5038278;28;20024;-56
2023/03/02 09:56:41;;;;;;;12.55;7.38;;;0.30;99.90;;;;;;5040534;28;20028;-58
2023/03/02 09:59:31;;;;;;;13.48;7.05;;;0.30;99.90;;;;;;5040761;28;20034;-58
2023/03/02 10:02:00;;;;;;;11.27;6.35;;;0.40;99.90;;;;;;5031766;28;20059;-58
2023/03/02 10:04:39;;;;;;;11.43;7.15;;;0.50;99.90;;;;;;5039738;28;20452;-58
2023/03/02 10:07:31;;;;;;;12.15;6.40;;;0.40;99.90;;;;;;5041689;28;20472;-58
2023/03/02 10:10:08;;;;;;;11.68;6.15;;;0.40;99.90;;;;;;5040427;28;20415;-58
2023/03/02 10:12:47;;;;;;;9.57;6.85;;;0.60;99.90;;;;;;5038813;28;20048;-57
2023/03/02 10:15:35;;;;;;;10.73;6.57;;;0.80;99.90;;;;;;5039953;28;20033;-59
2023/03/02 10:18:17;;;;;;;10.13;7.10;;;0.80;99.90;;;;;;5040795;28;20114;-56
2023/03/02 10:21:01;;;;;;;14.65;7.28;;;0.80;99.90;;;;;;5041410;28;20463;-58
2023/03/02 10:23:59;;;;;;;12.43;6.75;;;0.80;99.90;;;;;;5038724;28;20037;-58
2023/03/02 10:26:36;;;;;;;11.48;6.35;;;0.90;99.90;;;;;;5003654;28;20518;-58
2023/03/02 10:29:34;;;;;;;11.85;7.05;;;1.00;99.90;;;;;;5039014;28;20090;-56
2023/03/02 10:32:13;;;;;;;11.35;7.10;;;1.00;99.90;;;;;;5039451;28;20561;-55
2023/03/02 10:34:39;;;;;;;12.65;7.00;;;1.00;99.90;;;;;;5039253;28;20021;-58
2023/03/02 10:37:17;;;;;;;9.75;6.50;;;1.00;99.90;;;;;;5038945;28;20556;-56
2023/03/02 10:39:43;;;;;;;10.88;7.20;;;1.10;99.90;;;;;;5039269;28;20099;-58
2023/03/02 10:42:21;;;;;;;11.57;6.65;;;1.10;99.90;;;;;;5037826;28;20484;-57
2023/03/02 10:44:54;;;;;;;10.18;6.57;;;1.10;99.90;;;;;;5039044;28;20033;-58
2023/03/02 10:47:26;;;;;;;12.80;7.70;;;1.10;99.90;;;;;;5035930;28;20022;-56
2023/03/02 10:49:54;;;;;;;10.38;7.20;;;1.20;99.90;;;;;;5034400;28;20033;-56
2023/03/02 10:52:23;;;;;;;14.60;7.63;;;1.20;99.90;;;;;;5038061;28;20021;-58
2023/03/02 10:54:59;;;;;;;11.25;6.30;;;1.30;99.90;;;;;;5040842;28;20049;-56
2023/03/02 10:57:28;;;;;;;12.63;7.28;;;1.40;99.90;;;;;;5040191;28;20025;-57
2023/03/02 11:00:03;;;;;;;9.38;6.53;;;1.40;99.90;;;;;;5037262;28;20027;-57
2023/03/02 11:02:32;;;;;;;9.20;5.78;;;1.40;99.90;;;;;;5038099;28;20056;-58
2023/03/02 11:05:18;;;;;;;10.65;6.30;;;1.50;99.90;;;;;;5036920;28;20025;-56
2023/03/02 11:07:55;;;;;;;9.45;6.25;;;1.50;99.90;;;;;;5033873;28;20025;-58
2023/03/02 11:10:33;;;;;;;10.30;6.20;;;1.60;99.90;;;;;;5036907;28;20033;-58
2023/03/02 11:13:00;;;;;;;9.25;6.40;;;1.50;99.90;;;;;;5038627;28;20035;-57
2023/03/02 11:15:39;;;;;;;9.48;5.97;;;1.50;99.90;;;;;;5037829;28;20060;-58
2023/03/02 11:18:33;;;;;;;8.95;5.70;;;1.40;99.90;;;;;;5039543;28;20091;-57
2023/03/02 11:21:26;;;;;;;9.00;5.78;;;1.50;99.90;;;;;;5007290;28;20049;-57
2023/03/02 11:23:55;;;;;;;13.40;6.38;;;1.60;99.90;;;;;;5040678;28;20032;-57
2023/03/02 11:26:53;;;;;;;10.95;6.00;;;1.70;99.90;;;;;;5038128;28;20131;-57
2023/03/02 11:29:41;;;;;;;9.75;5.53;;;1.80;99.90;;;;;;5039526;28;20226;-58
2023/03/02 11:32:30;;;;;;;9.43;5.78;;;1.70;99.90;;;;;;5038075;28;20033;-58
2023/03/02 11:35:05;;;;;;;9.77;5.47;;;1.80;99.90;;;;;;5039548;28;20053;-55
2023/03/02 11:37:38;;;;;;;9.52;6.43;;;1.70;99.90;;;;;;5039701;28;20111;-58
2023/03/02 11:40:13;;;;;;;8.77;4.72;;;1.70;99.90;;;;;;5038687;28;20026;-58
2023/03/02 11:42:42;;;;;;;10.57;6.03;;;1.70;99.90;;;;;;5039545;28;20120;-58
2023/03/02 11:45:11;;;;;;;10.02;6.20;;;1.60;99.90;;;;;;5038996;28;20025;-54
2023/03/02 11:47:38;;;;;;;11.10;5.78;;;1.70;99.90;;;;;;5039071;28;20017;-57
2023/03/02 11:50:05;;;;;;;8.32;5.20;;;1.80;99.90;;;;;;5037273;28;20229;-57
2023/03/02 11:52:36;;;;;;;9.85;5.38;;;1.80;99.90;;;;;;5039608;28;20107;-58
2023/03/02 11:55:11;;;;;;;8.15;5.30;;;1.90;99.90;;;;;;5039878;28;20024;-58
2023/03/02 11:57:47;;;;;;;8.63;5.40;;;1.90;99.90;;;;;;5039154;28;20089;-58
2023/03/02 12:00:38;;;;;;;16.17;6.38;;;1.90;99.90;;;;;;5039553;28;20017;-56
2023/03/02 12:03:22;;;;;;;12.48;6.55;;;2.00;99.90;;;;;;5039807;28;20029;-58
2023/03/02 12:05:51;;;;;;;10.75;6.32;;;2.00;99.90;;;;;;5038697;28;20426;-58
2023/03/02 12:08:19;;;;;;;9.13;6.18;;;2.10;99.90;;;;;;5037676;28;20376;-56
2023/03/02 12:10:57;;;;;;;8.65;5.90;;;2.10;99.90;;;;;;5038522;28;20080;-58
2023/03/02 12:13:32;;;;;;;10.30;6.38;;;2.20;99.90;;;;;;5038613;28;20021;-57
2023/03/02 12:15:58;;;;;;;9.70;6.57;;;2.20;99.90;;;;;;5038538;28;20061;-56
2023/03/02 12:18:23;;;;;;;11.70;6.32;;;2.10;99.90;;;;;;5038355;28;20168;-58
2023/03/02 12:21:16;;;;;;;11.82;7.00;;;2.20;99.90;;;;;;5037182;28;20036;-57
2023/03/02 12:23:48;;;;;;;9.13;5.63;;;2.20;99.90;;;;;;5037379;28;20079;-57
2023/03/02 12:26:19;;;;;;;10.60;6.80;;;2.20;99.90;;;;;;5037978;28;20030;-58
2023/03/02 12:29:00;;;;;;;12.00;6.72;;;2.30;99.90;;;;;;5038055;28;20030;-57
2023/03/02 12:31:37;;;;;;;11.90;7.10;;;2.30;99.90;;;;;;5037244;28;20059;-59
2023/03/02 12:34:34;;;;;;;15.38;7.95;;;2.40;99.90;;;;;;5037788;28;20124;-58
2023/03/02 12:37:12;;;;;;;16.05;8.18;;;2.60;99.90;;;;;;5032991;28;20064;-58
2023/03/02 12:39:47;;;;;;;16.38;9.20;;;2.50;99.90;;;;;;5036849;28;20094;-57
2023/03/02 12:42:45;;;;;;;17.15;8.20;;;2.50;99.90;;;;;;5034372;28;20033;-57
2023/03/02 12:45:28;;;;;;;13.93;7.53;;;2.60;99.90;;;;;;5037365;28;20483;-58
2023/03/02 12:48:04;;;;;;;13.75;8.98;;;2.60;99.90;;;;;;5037419;28;20471;-55
2023/03/02 12:50:36;;;;;;;14.40;8.52;;;2.80;99.90;;;;;;5033089;28;20483;-57
2023/03/02 12:53:04;;;;;;;17.15;8.60;;;2.70;99.90;;;;;;5036958;28;20029;-57